Terminal Aerodrome Forecast
Issued by NWS

Current Version | Previous Version | Graphics & Text | Print | Product List | Glossary On
Versions: 1 2 3 4 5 6 7 8 9 10 11 12 13 14 15
000
FTUS41 KILN 090544
TAFLCK
TAF
KLCK 090544Z 0906/1006 18007KT P6SM SCT250
     FM091500 20009KT P6SM OVC090
     FM091800 21010KT P6SM VCSH OVC070
     FM092000 24010KT 3SM -SN SCT025 OVC035
      TEMPO 0920/0924 BKN025
     FM100000 27010G20KT 3SM -SHSN OVC018=

USA.gov is the U.S. government's official web portal to all federal, state and local government web resources and services.